CCM14VR LFML-LFKJ
Flight info
| Callsign | CCM14VR |
|---|---|
| Flight time | 0h 44m |
| Altitude | 23000 |
| Route | TINOT Z154 RUBAS |
| Aircraft | A320/M-SDE3FGHIRWY/LB1 |
Departure
| Time | 2026-04-28 20:26 |
|---|---|
| Airport | Marseille Provence Airport (LFML) |
Arrival
| Time | 2026-04-28 21:11 |
|---|---|
| Airport | Ajaccio Napoléon Bonaparte airport (LFKJ) |
| Time | Latitude | Longitude | Altitude | Speed | Heading |
|---|---|---|---|---|---|
| 2026-04-28 19:59 | 43.43811 | 5.22355 | 38 ft | 0 kts | 5° |
| 2026-04-28 20:16 | 43.43809 | 5.22355 | 10 ft | 2 kts | 4° |
| 2026-04-28 20:16 | 43.43783 | 5.22356 | 36 ft | 4 kts | 343° |
| 2026-04-28 20:16 | 43.43761 | 5.22373 | 36 ft | 4 kts | 307° |
| 2026-04-28 20:16 | 43.43751 | 5.22404 | 37 ft | 4 kts | 268° |
| 2026-04-28 20:17 | 43.43752 | 5.22421 | 36 ft | 0 kts | 255° |
| 2026-04-28 20:20 | 43.43752 | 5.22410 | 37 ft | 8 kts | 266° |
| 2026-04-28 20:21 | 43.43734 | 5.22277 | 37 ft | 16 kts | 291° |
| 2026-04-28 20:21 | 43.43697 | 5.22153 | 37 ft | 15 kts | 219° |
| 2026-04-28 20:21 | 43.43720 | 5.22038 | 37 ft | 15 kts | 330° |
| 2026-04-28 20:21 | 43.43800 | 5.21959 | 37 ft | 13 kts | 317° |
| 2026-04-28 20:22 | 43.43861 | 5.21874 | 37 ft | 12 kts | 315° |
| 2026-04-28 20:22 | 43.43914 | 5.21801 | 37 ft | 10 kts | 315° |
| 2026-04-28 20:22 | 43.43964 | 5.21719 | 37 ft | 15 kts | 302° |
| 2026-04-28 20:22 | 43.43935 | 5.21573 | 37 ft | 18 kts | 238° |
| 2026-04-28 20:23 | 43.43966 | 5.21424 | 37 ft | 18 kts | 309° |
| 2026-04-28 20:23 | 43.44055 | 5.21304 | 37 ft | 18 kts | 316° |
| 2026-04-28 20:23 | 43.44145 | 5.21174 | 37 ft | 19 kts | 313° |
| 2026-04-28 20:23 | 43.44237 | 5.21032 | 37 ft | 21 kts | 310° |
| 2026-04-28 20:24 | 43.44320 | 5.20861 | 37 ft | 22 kts | 302° |
| 2026-04-28 20:24 | 43.44425 | 5.20695 | 37 ft | 24 kts | 313° |
| 2026-04-28 20:24 | 43.44540 | 5.20525 | 37 ft | 25 kts | 314° |
| 2026-04-28 20:24 | 43.44662 | 5.20351 | 37 ft | 21 kts | 309° |
| 2026-04-28 20:25 | 43.44659 | 5.20275 | 35 ft | 6 kts | 237° |
| 2026-04-28 20:25 | 43.44596 | 5.20218 | 36 ft | 17 kts | 185° |
| 2026-04-28 20:25 | 43.44534 | 5.20274 | 37 ft | 8 kts | 135° |
| 2026-04-28 20:25 | 43.44397 | 5.20469 | 37 ft | 64 kts | 133° |
| 2026-04-28 20:26 | 43.43923 | 5.21144 | 36 ft | 129 kts | 134° |
| 2026-04-28 20:26 | 43.43197 | 5.22205 | 176 ft | 164 kts | 134° |
| 2026-04-28 20:26 | 43.42476 | 5.23321 | 1001 ft | 149 kts | 131° |
| 2026-04-28 20:26 | 43.41836 | 5.24377 | 1734 ft | 138 kts | 129° |
| 2026-04-28 20:27 | 43.41082 | 5.25240 | 2127 ft | 150 kts | 145° |
| 2026-04-28 20:27 | 43.40289 | 5.26306 | 2341 ft | 171 kts | 127° |
| 2026-04-28 20:27 | 43.39627 | 5.27789 | 2508 ft | 195 kts | 117° |
| 2026-04-28 20:27 | 43.38918 | 5.29503 | 2656 ft | 218 kts | 122° |
| 2026-04-28 20:28 | 43.38086 | 5.31306 | 3216 ft | 218 kts | 126° |
| 2026-04-28 20:28 | 43.36956 | 5.32643 | 3770 ft | 217 kts | 155° |
| 2026-04-28 20:28 | 43.35478 | 5.32967 | 3953 ft | 218 kts | 180° |
| 2026-04-28 20:28 | 43.33987 | 5.32903 | 3997 ft | 206 kts | 179° |
| 2026-04-28 20:29 | 43.32586 | 5.32848 | 4002 ft | 200 kts | 179° |
| 2026-04-28 20:29 | 43.31089 | 5.32801 | 4076 ft | 229 kts | 178° |
| 2026-04-28 20:29 | 43.29436 | 5.32809 | 4235 ft | 251 kts | 177° |
| 2026-04-28 20:29 | 43.27661 | 5.32857 | 4758 ft | 253 kts | 176° |
| 2026-04-28 20:30 | 43.25956 | 5.32905 | 5855 ft | 232 kts | 176° |
| 2026-04-28 20:30 | 43.24402 | 5.32948 | 6699 ft | 221 kts | 177° |
| 2026-04-28 20:30 | 43.22878 | 5.32988 | 7370 ft | 217 kts | 177° |
| 2026-04-28 20:30 | 43.21365 | 5.33029 | 7929 ft | 218 kts | 178° |
| 2026-04-28 20:31 | 43.19833 | 5.33071 | 8413 ft | 222 kts | 178° |
| 2026-04-28 20:31 | 43.18282 | 5.33113 | 8920 ft | 224 kts | 179° |
| 2026-04-28 20:31 | 43.16658 | 5.33156 | 9195 ft | 240 kts | 179° |
| 2026-04-28 20:31 | 43.14916 | 5.33199 | 9329 ft | 260 kts | 179° |
| 2026-04-28 20:32 | 43.13070 | 5.33240 | 9465 ft | 277 kts | 179° |
| 2026-04-28 20:32 | 43.11083 | 5.33284 | 9790 ft | 285 kts | 179° |
| 2026-04-28 20:32 | 43.09120 | 5.33332 | 10127 ft | 290 kts | 178° |
| 2026-04-28 20:32 | 43.07103 | 5.33903 | 10245 ft | 309 kts | 156° |
| 2026-04-28 20:33 | 43.05315 | 5.35706 | 10475 ft | 335 kts | 132° |
| 2026-04-28 20:33 | 43.03821 | 5.38296 | 10684 ft | 358 kts | 128° |
| 2026-04-28 20:33 | 43.02305 | 5.41065 | 11216 ft | 367 kts | 127° |
| 2026-04-28 20:33 | 43.00777 | 5.43898 | 11905 ft | 372 kts | 128° |
| 2026-04-28 20:34 | 42.99234 | 5.46765 | 12632 ft | 376 kts | 127° |
| 2026-04-28 20:34 | 42.97675 | 5.49646 | 13354 ft | 380 kts | 128° |
| 2026-04-28 20:34 | 42.96089 | 5.52550 | 14035 ft | 383 kts | 128° |
| 2026-04-28 20:34 | 42.94478 | 5.55483 | 14639 ft | 388 kts | 128° |
| 2026-04-28 20:35 | 42.92850 | 5.58436 | 15232 ft | 392 kts | 128° |
| 2026-04-28 20:35 | 42.91200 | 5.61425 | 15830 ft | 396 kts | 128° |
| 2026-04-28 20:35 | 42.89529 | 5.64449 | 16425 ft | 401 kts | 129° |
| 2026-04-28 20:35 | 42.87842 | 5.67497 | 17015 ft | 405 kts | 129° |
| 2026-04-28 20:36 | 42.86133 | 5.70579 | 17592 ft | 409 kts | 129° |
| 2026-04-28 20:36 | 42.84408 | 5.73692 | 18169 ft | 414 kts | 129° |
| 2026-04-28 20:36 | 42.82666 | 5.76839 | 18674 ft | 418 kts | 129° |
| 2026-04-28 20:36 | 42.80907 | 5.80011 | 19182 ft | 421 kts | 129° |
| 2026-04-28 20:37 | 42.79136 | 5.83202 | 19677 ft | 424 kts | 129° |
| 2026-04-28 20:37 | 42.77348 | 5.86429 | 20180 ft | 427 kts | 129° |
| 2026-04-28 20:37 | 42.75553 | 5.89666 | 20657 ft | 431 kts | 129° |
| 2026-04-28 20:37 | 42.73738 | 5.92927 | 21125 ft | 433 kts | 129° |
| 2026-04-28 20:38 | 42.71910 | 5.96200 | 21581 ft | 436 kts | 129° |
| 2026-04-28 20:38 | 42.70150 | 5.99354 | 22009 ft | 439 kts | 129° |
| 2026-04-28 20:38 | 42.68294 | 6.02673 | 22450 ft | 441 kts | 129° |
| 2026-04-28 20:38 | 42.66455 | 6.05959 | 22852 ft | 444 kts | 130° |
| 2026-04-28 20:39 | 42.64581 | 6.09300 | 23007 ft | 447 kts | 130° |
| 2026-04-28 20:39 | 42.62670 | 6.12703 | 23034 ft | 458 kts | 130° |
| 2026-04-28 20:39 | 42.60691 | 6.16225 | 23030 ft | 467 kts | 129° |
| 2026-04-28 20:39 | 42.58740 | 6.19698 | 23030 ft | 469 kts | 129° |
| 2026-04-28 20:40 | 42.56758 | 6.23232 | 23029 ft | 470 kts | 129° |
| 2026-04-28 20:40 | 42.54778 | 6.26758 | 23031 ft | 470 kts | 129° |
| 2026-04-28 20:40 | 42.52792 | 6.30280 | 23030 ft | 470 kts | 130° |
| 2026-04-28 20:40 | 42.50804 | 6.33797 | 23029 ft | 470 kts | 130° |
| 2026-04-28 20:41 | 42.48814 | 6.37315 | 23030 ft | 470 kts | 130° |
| 2026-04-28 20:41 | 42.46820 | 6.40836 | 23031 ft | 470 kts | 130° |
| 2026-04-28 20:41 | 42.44824 | 6.44352 | 23029 ft | 470 kts | 130° |
| 2026-04-28 20:41 | 42.42853 | 6.47808 | 23017 ft | 461 kts | 130° |
| 2026-04-28 20:42 | 42.40875 | 6.51277 | 23032 ft | 470 kts | 130° |
| 2026-04-28 20:42 | 42.38904 | 6.54854 | 23026 ft | 478 kts | 126° |
| 2026-04-28 20:42 | 42.37280 | 6.58797 | 23030 ft | 482 kts | 116° |
| 2026-04-28 20:42 | 42.36075 | 6.63043 | 23031 ft | 484 kts | 111° |
| 2026-04-28 20:43 | 42.34963 | 6.67339 | 23030 ft | 484 kts | 111° |
| 2026-04-28 20:43 | 42.33839 | 6.71633 | 23035 ft | 484 kts | 111° |
| 2026-04-28 20:43 | 42.32709 | 6.75909 | 23033 ft | 484 kts | 111° |
| 2026-04-28 20:43 | 42.31568 | 6.80194 | 23032 ft | 484 kts | 111° |
| 2026-04-28 20:44 | 42.30426 | 6.84465 | 23027 ft | 484 kts | 112° |
| 2026-04-28 20:44 | 42.29280 | 6.88742 | 23034 ft | 483 kts | 112° |
| 2026-04-28 20:44 | 42.28134 | 6.93014 | 23034 ft | 483 kts | 112° |
| 2026-04-28 20:44 | 42.26991 | 6.97280 | 23034 ft | 483 kts | 112° |
| 2026-04-28 20:45 | 42.25851 | 7.01539 | 23035 ft | 483 kts | 112° |
| 2026-04-28 20:45 | 42.24711 | 7.05800 | 23034 ft | 483 kts | 112° |
| 2026-04-28 20:45 | 42.23571 | 7.10060 | 23033 ft | 483 kts | 112° |
| 2026-04-28 20:45 | 42.22431 | 7.14322 | 23029 ft | 482 kts | 112° |
| 2026-04-28 20:46 | 42.21269 | 7.18651 | 23027 ft | 482 kts | 112° |
| 2026-04-28 20:46 | 42.20143 | 7.22832 | 23029 ft | 482 kts | 112° |
| 2026-04-28 20:46 | 42.18993 | 7.27085 | 23028 ft | 482 kts | 112° |
| 2026-04-28 20:46 | 42.17845 | 7.31314 | 23030 ft | 474 kts | 112° |
| 2026-04-28 20:47 | 42.16744 | 7.35376 | 23033 ft | 449 kts | 112° |
| 2026-04-28 20:47 | 42.15702 | 7.39224 | 23037 ft | 428 kts | 112° |
| 2026-04-28 20:47 | 42.14712 | 7.42878 | 23037 ft | 411 kts | 112° |
| 2026-04-28 20:47 | 42.13734 | 7.46467 | 22911 ft | 407 kts | 112° |
| 2026-04-28 20:48 | 42.12755 | 7.50035 | 22462 ft | 403 kts | 112° |
| 2026-04-28 20:48 | 42.11788 | 7.53559 | 22198 ft | 400 kts | 112° |
| 2026-04-28 20:48 | 42.10810 | 7.57117 | 21940 ft | 416 kts | 112° |
| 2026-04-28 20:48 | 42.09775 | 7.60878 | 21671 ft | 440 kts | 112° |
| 2026-04-28 20:49 | 42.08691 | 7.64820 | 21373 ft | 457 kts | 112° |
| 2026-04-28 20:49 | 42.07594 | 7.68822 | 20962 ft | 451 kts | 112° |
| 2026-04-28 20:49 | 42.06533 | 7.72705 | 20824 ft | 432 kts | 112° |
| 2026-04-28 20:49 | 42.05515 | 7.76424 | 20612 ft | 417 kts | 112° |
| 2026-04-28 20:50 | 42.04518 | 7.80045 | 20171 ft | 411 kts | 112° |
| 2026-04-28 20:50 | 42.03526 | 7.83632 | 19665 ft | 407 kts | 112° |
| 2026-04-28 20:50 | 42.02544 | 7.87179 | 19165 ft | 404 kts | 112° |
| 2026-04-28 20:50 | 42.01565 | 7.90707 | 18637 ft | 401 kts | 112° |
| 2026-04-28 20:51 | 42.00590 | 7.94203 | 18124 ft | 398 kts | 112° |
| 2026-04-28 20:51 | 41.99704 | 7.97710 | 17560 ft | 396 kts | 105° |
| 2026-04-28 20:51 | 41.99145 | 8.01318 | 17070 ft | 392 kts | 103° |
| 2026-04-28 20:51 | 41.98779 | 8.03718 | 16981 ft | 383 kts | 103° |
| 2026-04-28 20:52 | 41.98086 | 8.08269 | 16657 ft | 369 kts | 103° |
| 2026-04-28 20:52 | 41.97574 | 8.11631 | 16251 ft | 365 kts | 103° |
| 2026-04-28 20:52 | 41.97063 | 8.14966 | 15815 ft | 363 kts | 103° |
| 2026-04-28 20:52 | 41.96558 | 8.18268 | 15386 ft | 360 kts | 103° |
| 2026-04-28 20:53 | 41.95552 | 8.24818 | 14533 ft | 355 kts | 103° |
| 2026-04-28 20:53 | 41.95052 | 8.28058 | 14122 ft | 353 kts | 103° |
| 2026-04-28 20:53 | 41.94556 | 8.31277 | 13666 ft | 352 kts | 103° |
| 2026-04-28 20:54 | 41.94226 | 8.33409 | 13304 ft | 352 kts | 103° |
| 2026-04-28 20:54 | 41.93728 | 8.36619 | 12755 ft | 351 kts | 103° |
| 2026-04-28 20:54 | 41.93227 | 8.39831 | 12216 ft | 351 kts | 103° |
| 2026-04-28 20:54 | 41.92728 | 8.43033 | 11697 ft | 350 kts | 103° |
| 2026-04-28 20:55 | 41.92231 | 8.46223 | 11175 ft | 348 kts | 103° |
| 2026-04-28 20:55 | 41.91735 | 8.49399 | 10671 ft | 347 kts | 103° |
| 2026-04-28 20:55 | 41.91241 | 8.52559 | 10168 ft | 345 kts | 104° |
| 2026-04-28 20:55 | 41.90748 | 8.55699 | 9650 ft | 343 kts | 104° |
| 2026-04-28 20:56 | 41.90257 | 8.58827 | 9104 ft | 341 kts | 104° |
| 2026-04-28 20:56 | 41.89737 | 8.61911 | 8568 ft | 337 kts | 110° |
| 2026-04-28 20:56 | 41.88660 | 8.64643 | 8037 ft | 329 kts | 131° |
| 2026-04-28 20:56 | 41.86975 | 8.66640 | 7519 ft | 322 kts | 150° |
| 2026-04-28 20:57 | 41.84935 | 8.67778 | 7002 ft | 315 kts | 168° |
| 2026-04-28 20:57 | 41.82773 | 8.68019 | 6501 ft | 311 kts | 185° |
| 2026-04-28 20:57 | 41.80683 | 8.67406 | 5971 ft | 307 kts | 201° |
| 2026-04-28 20:57 | 41.78833 | 8.66012 | 5443 ft | 306 kts | 217° |
| 2026-04-28 20:58 | 41.77372 | 8.63963 | 4922 ft | 305 kts | 233° |
| 2026-04-28 20:58 | 41.76431 | 8.61459 | 4396 ft | 306 kts | 250° |
| 2026-04-28 20:58 | 41.76089 | 8.58634 | 4046 ft | 301 kts | 268° |
| 2026-04-28 20:58 | 41.76358 | 8.55938 | 3993 ft | 284 kts | 284° |
| 2026-04-28 20:59 | 41.77101 | 8.53582 | 3999 ft | 266 kts | 300° |
| 2026-04-28 20:59 | 41.78173 | 8.51664 | 3999 ft | 249 kts | 311° |
| 2026-04-28 20:59 | 41.79336 | 8.50048 | 4000 ft | 235 kts | 315° |
| 2026-04-28 20:59 | 41.80521 | 8.48542 | 4005 ft | 243 kts | 316° |
| 2026-04-28 21:00 | 41.81766 | 8.46995 | 4003 ft | 245 kts | 316° |
| 2026-04-28 21:00 | 41.83022 | 8.45434 | 4005 ft | 246 kts | 316° |
| 2026-04-28 21:00 | 41.84272 | 8.43870 | 4005 ft | 246 kts | 316° |
| 2026-04-28 21:00 | 41.85520 | 8.42302 | 4004 ft | 246 kts | 316° |
| 2026-04-28 21:01 | 41.86762 | 8.40733 | 4004 ft | 246 kts | 316° |
| 2026-04-28 21:01 | 41.88027 | 8.39189 | 4001 ft | 246 kts | 321° |
| 2026-04-28 21:01 | 41.89521 | 8.37952 | 4007 ft | 266 kts | 336° |
| 2026-04-28 21:01 | 41.91332 | 8.37239 | 4003 ft | 274 kts | 353° |
| 2026-04-28 21:02 | 41.93241 | 8.37263 | 4002 ft | 275 kts | 11° |
| 2026-04-28 21:02 | 41.95057 | 8.38024 | 4001 ft | 273 kts | 28° |
| 2026-04-28 21:02 | 41.96622 | 8.39442 | 4001 ft | 271 kts | 45° |
| 2026-04-28 21:02 | 41.97815 | 8.41374 | 3998 ft | 268 kts | 61° |
| 2026-04-28 21:03 | 41.98553 | 8.43652 | 3998 ft | 265 kts | 77° |
| 2026-04-28 21:03 | 41.98795 | 8.46093 | 4002 ft | 263 kts | 93° |
| 2026-04-28 21:03 | 41.98535 | 8.48505 | 4003 ft | 261 kts | 108° |
| 2026-04-28 21:03 | 41.97806 | 8.50721 | 4004 ft | 259 kts | 123° |
| 2026-04-28 21:04 | 41.96711 | 8.52629 | 4003 ft | 257 kts | 130° |
| 2026-04-28 21:04 | 41.95590 | 8.54453 | 3725 ft | 251 kts | 130° |
| 2026-04-28 21:04 | 41.94481 | 8.56250 | 3321 ft | 249 kts | 130° |
| 2026-04-28 21:04 | 41.93370 | 8.58026 | 2911 ft | 248 kts | 130° |
| 2026-04-28 21:05 | 41.92205 | 8.59726 | 2487 ft | 247 kts | 141° |
| 2026-04-28 21:05 | 41.90777 | 8.61004 | 2078 ft | 246 kts | 141° |
| 2026-04-28 21:05 | 41.89750 | 8.62799 | 1994 ft | 241 kts | 110° |
| 2026-04-28 21:05 | 41.89408 | 8.64864 | 1998 ft | 215 kts | 98° |
| 2026-04-28 21:06 | 41.89238 | 8.66796 | 2004 ft | 202 kts | 92° |
| 2026-04-28 21:06 | 41.89338 | 8.68647 | 2005 ft | 196 kts | 82° |
| 2026-04-28 21:06 | 41.89573 | 8.70402 | 2006 ft | 188 kts | 77° |
| 2026-04-28 21:06 | 41.90052 | 8.72007 | 2019 ft | 186 kts | 49° |
| 2026-04-28 21:07 | 41.91088 | 8.73017 | 2014 ft | 185 kts | 27° |
| 2026-04-28 21:07 | 41.92231 | 8.73760 | 2057 ft | 185 kts | 26° |
| 2026-04-28 21:07 | 41.93393 | 8.74506 | 2052 ft | 181 kts | 27° |
| 2026-04-28 21:07 | 41.94451 | 8.75235 | 1979 ft | 165 kts | 28° |
| 2026-04-28 21:08 | 41.95453 | 8.75934 | 1807 ft | 161 kts | 28° |
| 2026-04-28 21:08 | 41.96433 | 8.76631 | 1676 ft | 156 kts | 29° |
| 2026-04-28 21:08 | 41.97329 | 8.77376 | 1577 ft | 149 kts | 40° |
| 2026-04-28 21:08 | 41.97964 | 8.78473 | 1378 ft | 150 kts | 65° |
| 2026-04-28 21:09 | 41.98154 | 8.79822 | 1096 ft | 146 kts | 94° |
| 2026-04-28 21:09 | 41.97776 | 8.81017 | 998 ft | 139 kts | 129° |
| 2026-04-28 21:09 | 41.97050 | 8.81885 | 831 ft | 142 kts | 146° |
| 2026-04-28 21:09 | 41.96072 | 8.82265 | 680 ft | 154 kts | 176° |
| 2026-04-28 21:10 | 41.95041 | 8.81905 | 599 ft | 154 kts | 206° |
| 2026-04-28 21:10 | 41.94055 | 8.81306 | 353 ft | 156 kts | 202° |
| 2026-04-28 21:10 | 41.93114 | 8.80699 | 111 ft | 150 kts | 204° |
| 2026-04-28 21:10 | 41.92218 | 8.80139 | 21 ft | 120 kts | 205° |
| 2026-04-28 21:11 | 41.91621 | 8.79768 | 19 ft | 61 kts | 205° |
| 2026-04-28 21:11 | 41.91327 | 8.79585 | 22 ft | 23 kts | 204° |
| 2026-04-28 21:11 | 41.91249 | 8.79455 | 24 ft | 18 kts | 293° |
| 2026-04-28 21:11 | 41.91345 | 8.79363 | 26 ft | 16 kts | 335° |
| 2026-04-28 21:12 | 41.91462 | 8.79338 | 28 ft | 18 kts | 8° |
| 2026-04-28 21:12 | 41.91586 | 8.79408 | 26 ft | 20 kts | 24° |
| 2026-04-28 21:12 | 41.91676 | 8.79467 | 26 ft | 13 kts | 25° |
| 2026-04-28 21:12 | 41.91757 | 8.79517 | 26 ft | 12 kts | 24° |
| 2026-04-28 21:13 | 41.91837 | 8.79509 | 26 ft | 12 kts | 345° |
| 2026-04-28 21:13 | 41.91850 | 8.79505 | 26 ft | 0 kts | 346° |